createdAt,value
2019-02-17T00:01:19.757Z,63.97
2019-02-17T00:03:48.356Z,65.47
2019-02-17T00:06:17.032Z,75.83
2019-02-17T00:08:45.677Z,65.93
2019-02-17T00:11:14.313Z,78.37
2019-02-17T00:13:42.909Z,72.87
2019-02-17T00:16:11.554Z,60.73
2019-02-17T00:18:40.167Z,63.83
2019-02-17T00:21:08.731Z,67.47
2019-02-17T00:23:37.392Z,70.63
2019-02-17T00:26:06.025Z,62.30
2019-02-17T00:28:34.615Z,65.60
2019-02-17T00:31:03.253Z,65.77
2019-02-17T00:33:31.914Z,70.23
2019-02-17T00:36:00.549Z,57.67
2019-02-17T00:38:29.186Z,71.70
2019-02-17T00:40:57.850Z,64.73
2019-02-17T00:43:26.428Z,60.23
2019-02-17T00:45:55.097Z,59.37
2019-02-17T00:48:23.656Z,62.43
2019-02-17T00:50:52.258Z,60.17
2019-02-17T00:53:20.861Z,69.57
2019-02-17T00:55:49.426Z,69.27
2019-02-17T00:58:18.026Z,61.97
2019-02-17T01:00:46.733Z,55.30
2019-02-17T01:03:15.337Z,65.20
2019-02-17T01:05:44.049Z,65.70
2019-02-17T01:08:12.640Z,75.03
2019-02-17T01:10:41.273Z,63.67
2019-02-17T01:13:09.869Z,79.27
2019-02-17T01:15:38.429Z,90.20
2019-02-17T01:18:07.107Z,64.57
2019-02-17T01:20:35.666Z,62.50
2019-02-17T01:23:04.343Z,65.50
2019-02-17T01:25:32.982Z,62.30
2019-02-17T01:28:01.578Z,67.67
2019-02-17T01:30:30.143Z,62.30
2019-02-17T01:32:58.749Z,69.33
2019-02-17T01:35:27.381Z,68.37
2019-02-17T01:37:58.249Z,61.57
2019-02-17T01:40:26.325Z,65.60
2019-02-17T01:42:54.990Z,68.20
2019-02-17T01:45:23.822Z,77.63
2019-02-17T01:48:11.766Z,71.03
2019-02-17T01:50:40.433Z,82.90
2019-02-17T01:53:09.098Z,72.33
2019-02-17T01:55:37.740Z,68.87
2019-02-17T01:58:06.464Z,68.73
2019-02-17T02:00:35.166Z,70.37
2019-02-17T02:03:03.799Z,62.67
2019-02-17T02:05:32.396Z,71.73
2019-02-17T02:08:01.599Z,66.40
2019-02-17T02:10:30.267Z,67.67
2019-02-17T02:12:58.904Z,94.93
2019-02-17T02:15:27.577Z,82.13
2019-02-17T02:17:56.222Z,77.70
2019-02-17T02:20:25.154Z,80.60
2019-02-17T02:22:53.784Z,73.07
2019-02-17T02:25:22.437Z,66.47
2019-02-17T02:27:51.067Z,69.37
2019-02-17T02:30:19.655Z,64.27
2019-02-17T02:32:48.283Z,70.03
2019-02-17T02:35:16.945Z,70.10
2019-02-17T02:37:45.586Z,71.57
2019-02-17T02:40:14.220Z,67.00
2019-02-17T02:42:42.769Z,65.27
2019-02-17T02:45:11.878Z,51.60
2019-02-17T02:47:40.627Z,68.53
2019-02-17T02:50:11.536Z,65.33
2019-02-17T02:52:40.286Z,56.63
2019-02-17T02:55:09.395Z,69.07
2019-02-17T02:57:38.067Z,68.83
2019-02-17T03:00:14.014Z,56.93
2019-02-17T03:02:42.663Z,66.47
2019-02-17T03:05:11.463Z,65.03
2019-02-17T03:07:40.159Z,60.27
2019-02-17T03:10:10.168Z,64.83
2019-02-17T03:12:38.768Z,61.00
2019-02-17T03:15:08.769Z,72.40
2019-02-17T03:17:37.433Z,69.77
2019-02-17T03:20:08.638Z,67.47
2019-02-17T03:22:37.238Z,78.20
2019-02-17T03:25:07.241Z,81.37
2019-02-17T03:27:35.796Z,68.20
2019-02-17T03:30:06.623Z,59.40
2019-02-17T03:32:35.330Z,79.20
2019-02-17T03:35:04.070Z,67.67
2019-02-17T03:37:32.687Z,66.67
2019-02-17T03:40:01.286Z,66.70
2019-02-17T03:42:29.855Z,78.70
2019-02-17T03:44:58.521Z,79.13
2019-02-17T03:47:27.087Z,80.73
2019-02-17T03:49:55.775Z,93.87
2019-02-17T03:52:24.417Z,74.73
2019-02-17T03:54:53.085Z,70.20
2019-02-17T03:57:21.669Z,83.70
2019-02-17T03:59:50.250Z,81.23
2019-02-17T04:02:18.810Z,68.30
2019-02-17T04:04:47.546Z,76.47
2019-02-17T04:07:16.223Z,66.93
2019-02-17T04:09:44.928Z,83.90
2019-02-17T04:12:13.490Z,97.70
2019-02-17T04:14:42.162Z,89.47
2019-02-17T04:17:10.807Z,86.30
2019-02-17T04:19:39.547Z,72.27
2019-02-17T04:22:08.110Z,84.73
2019-02-17T04:24:36.709Z,87.23
2019-02-17T04:27:05.273Z,77.07
2019-02-17T04:29:33.870Z,111.70
2019-02-17T04:32:02.437Z,92.93
2019-02-17T04:34:31.034Z,118.30
2019-02-17T04:36:59.673Z,106.50
2019-02-17T04:39:28.335Z,140.30
2019-02-17T04:41:57.001Z,105.67
2019-02-17T04:44:25.638Z,99.57
2019-02-17T04:46:54.378Z,127.80
2019-02-17T04:49:22.936Z,94.07
2019-02-17T04:51:51.678Z,108.70
2019-02-17T04:54:20.241Z,124.87
2019-02-17T04:56:48.841Z,116.83
2019-02-17T04:59:17.406Z,115.73
2019-02-17T05:01:46.078Z,118.57
2019-02-17T05:04:14.781Z,104.83
2019-02-17T05:06:43.487Z,124.87
2019-02-17T05:09:12.211Z,165.03
2019-02-17T05:11:40.787Z,117.70
2019-02-17T05:14:09.385Z,153.07
2019-02-17T05:16:38.044Z,189.93
2019-02-17T05:19:06.713Z,157.43
2019-02-17T05:21:35.347Z,189.73
2019-02-17T05:24:04.099Z,116.20
2019-02-17T05:26:32.674Z,117.13
2019-02-17T05:29:01.266Z,160.20
2019-02-17T05:31:29.842Z,145.47
2019-02-17T05:33:58.406Z,171.07
2019-02-17T05:36:27.014Z,133.57
2019-02-17T05:38:55.649Z,87.13
2019-02-17T05:41:24.382Z,122.27
2019-02-17T05:43:52.954Z,132.50
2019-02-17T05:46:21.549Z,91.30
2019-02-17T05:48:50.181Z,148.30
2019-02-17T05:51:18.858Z,146.70
2019-02-17T05:53:47.466Z,139.00
2019-02-17T05:56:16.074Z,211.43
2019-02-17T05:58:44.717Z,110.27
2019-02-17T06:01:13.347Z,192.87
2019-02-17T06:03:41.950Z,151.87
2019-02-17T06:06:10.600Z,226.13
2019-02-17T06:08:39.192Z,196.67
2019-02-17T06:11:07.757Z,135.53
2019-02-17T06:13:36.430Z,197.43
2019-02-17T06:16:05.144Z,138.73
2019-02-17T06:18:33.778Z,151.53
2019-02-17T06:21:02.360Z,128.77
2019-02-17T06:23:30.933Z,225.90
2019-02-17T06:25:59.684Z,111.50
2019-02-17T06:28:28.422Z,182.33
2019-02-17T06:30:56.999Z,198.03
2019-02-17T06:33:25.670Z,211.50
2019-02-17T06:35:54.368Z,124.37
2019-02-17T06:38:22.968Z,211.33
2019-02-17T06:40:51.536Z,284.63
2019-02-17T06:43:20.154Z,223.53
2019-02-17T06:45:48.805Z,247.70
2019-02-17T06:48:17.402Z,231.67
2019-02-17T06:50:46.117Z,247.77
2019-02-17T06:53:14.777Z,87.53
2019-02-17T06:55:51.071Z,106.43
2019-02-17T06:58:19.665Z,99.30
2019-02-17T07:00:48.300Z,191.70
2019-02-17T07:03:17.017Z,109.37
2019-02-17T07:05:59.442Z,116.03
2019-02-17T07:08:28.102Z,90.83
2019-02-17T07:10:56.741Z,69.83
2019-02-17T07:13:25.305Z,57.80
2019-02-17T07:15:53.912Z,97.23
2019-02-17T07:18:22.469Z,76.77
2019-02-17T07:20:51.125Z,82.23
2019-02-17T07:23:19.712Z,82.13
2019-02-17T07:25:48.309Z,111.40
2019-02-17T07:28:16.882Z,63.10
2019-02-17T07:30:45.553Z,71.87
2019-02-17T07:33:14.266Z,108.57
2019-02-17T07:35:43.011Z,112.83
2019-02-17T07:38:11.646Z,73.00
2019-02-17T07:40:40.694Z,58.53
2019-02-17T07:43:09.334Z,67.50
2019-02-17T07:45:37.994Z,55.93
2019-02-17T07:48:06.566Z,87.30
2019-02-17T07:50:35.163Z,56.73
2019-02-17T07:53:03.871Z,97.63
2019-02-17T07:55:32.606Z,85.67
2019-02-17T07:58:01.243Z,81.90
2019-02-17T08:00:29.912Z,82.90
2019-02-17T08:02:58.611Z,82.80
2019-02-17T08:05:27.314Z,119.47
2019-02-17T08:07:56.002Z,110.93
2019-02-17T08:10:24.576Z,79.53
2019-02-17T08:12:53.229Z,140.33
2019-02-17T08:15:21.930Z,126.57
2019-02-17T08:17:50.601Z,69.33
2019-02-17T08:20:19.240Z,63.70
2019-02-17T08:22:47.830Z,67.17
2019-02-17T08:25:21.712Z,113.20
2019-02-17T08:27:46.777Z,98.27
2019-02-17T08:30:15.412Z,64.83
2019-02-17T08:32:44.315Z,47.67
2019-02-17T08:35:13.077Z,53.30
2019-02-17T08:37:41.657Z,51.23
2019-02-17T08:40:11.067Z,53.10
2019-02-17T08:42:39.710Z,63.27
2019-02-17T08:45:09.833Z,69.27
2019-02-17T08:47:38.390Z,41.00
2019-02-17T08:50:09.698Z,64.60
2019-02-17T08:52:38.405Z,53.73
2019-02-17T08:55:09.510Z,44.47
2019-02-17T08:57:38.247Z,53.40
2019-02-17T09:00:09.950Z,49.17
2019-02-17T09:02:40.672Z,58.47
2019-02-17T09:05:08.974Z,71.10
2019-02-17T09:07:37.598Z,86.00
2019-02-17T09:10:12.085Z,54.47
2019-02-17T09:12:40.727Z,62.17
2019-02-17T09:15:13.220Z,43.07
2019-02-17T09:17:41.950Z,43.57
2019-02-17T09:20:11.593Z,73.90
2019-02-17T09:22:40.228Z,40.87
2019-02-17T09:25:11.233Z,37.00
2019-02-17T09:27:39.976Z,38.33
2019-02-17T09:30:11.676Z,33.43
2019-02-17T09:32:40.312Z,29.17
2019-02-17T09:35:09.017Z,31.97
2019-02-17T09:37:37.619Z,27.57
2019-02-17T09:40:09.254Z,26.70
2019-02-17T09:42:37.965Z,27.33
2019-02-17T09:45:12.191Z,26.50
2019-02-17T09:47:40.903Z,26.27
2019-02-17T09:50:14.379Z,27.00
2019-02-17T09:52:43.088Z,26.83
2019-02-17T09:55:11.990Z,25.23
2019-02-17T09:57:40.730Z,24.77
2019-02-17T10:00:14.407Z,23.97
2019-02-17T10:02:43.067Z,26.40
2019-02-17T10:05:12.974Z,25.07
2019-02-17T10:07:41.637Z,24.80
2019-02-17T10:10:13.270Z,29.00
2019-02-17T10:12:41.979Z,26.73
2019-02-17T10:15:12.615Z,25.80
2019-02-17T10:17:41.247Z,27.40
2019-02-17T10:20:12.451Z,30.50
2019-02-17T10:22:41.015Z,26.73
2019-02-17T10:25:10.188Z,28.90
2019-02-17T10:27:38.813Z,27.97
2019-02-17T10:30:10.489Z,28.17
2019-02-17T10:32:39.327Z,31.63
2019-02-17T10:35:08.395Z,34.50
2019-02-17T10:37:37.029Z,35.30
2019-02-17T10:40:11.218Z,40.60
2019-02-17T10:42:39.780Z,39.53
2019-02-17T10:45:09.882Z,35.87
2019-02-17T10:47:38.513Z,37.13
2019-02-17T10:50:09.723Z,37.90
2019-02-17T10:52:38.354Z,39.27
2019-02-17T10:55:09.385Z,38.90
2019-02-17T10:57:38.018Z,35.17
2019-02-17T11:00:14.587Z,39.57
2019-02-17T11:02:47.209Z,37.73
2019-02-17T11:05:13.777Z,40.23
2019-02-17T11:07:42.826Z,42.87
2019-02-17T11:10:12.951Z,40.87
2019-02-17T11:12:41.631Z,42.53
2019-02-17T11:15:20.559Z,41.13
2019-02-17T11:17:49.280Z,40.23
2019-02-17T11:20:18.238Z,46.67
2019-02-17T11:22:46.945Z,42.27
2019-02-17T11:25:15.604Z,40.23
2019-02-17T11:27:44.227Z,39.70
2019-02-17T11:30:16.336Z,40.50
2019-02-17T11:32:45.021Z,43.80
2019-02-17T11:35:14.178Z,42.43
2019-02-17T11:37:45.061Z,38.03
2019-02-17T11:40:15.530Z,39.17
2019-02-17T11:42:44.454Z,40.80
2019-02-17T11:45:16.819Z,44.07
2019-02-17T11:47:45.529Z,41.03
2019-02-17T11:50:15.852Z,43.57
2019-02-17T11:52:46.309Z,43.87
2019-02-17T11:55:15.867Z,39.17
2019-02-17T11:57:45.295Z,42.00
2019-02-17T12:00:22.016Z,43.67
2019-02-17T12:02:53.121Z,43.17
2019-02-17T12:05:22.159Z,44.67
2019-02-17T12:07:51.166Z,40.97
2019-02-17T12:10:20.038Z,45.07
2019-02-17T12:12:48.790Z,46.07
2019-02-17T12:15:17.785Z,42.93
2019-02-17T12:17:46.515Z,39.63
2019-02-17T12:20:38.275Z,44.20
2019-02-17T12:23:08.873Z,41.43
2019-02-17T12:25:39.688Z,42.27
2019-02-17T12:28:10.511Z,43.53
2019-02-17T12:30:41.599Z,42.03
2019-02-17T12:33:18.359Z,46.80
2019-02-17T12:35:42.645Z,44.63
2019-02-17T12:38:11.377Z,43.07
2019-02-17T12:40:40.093Z,43.13
2019-02-17T12:43:08.703Z,47.03
2019-02-17T12:45:37.927Z,42.17
2019-02-17T12:48:06.626Z,45.30
2019-02-17T12:50:35.326Z,45.90
2019-02-17T12:53:04.219Z,46.17
2019-02-17T12:55:32.793Z,48.40
2019-02-17T12:58:01.462Z,45.67
2019-02-17T13:00:30.511Z,43.67
2019-02-17T13:02:59.258Z,44.97
2019-02-17T13:05:27.905Z,40.43
2019-02-17T13:07:56.658Z,46.47
2019-02-17T13:10:25.370Z,41.80
2019-02-17T13:12:54.225Z,41.77
2019-02-17T13:15:23.924Z,42.47
2019-02-17T13:17:53.197Z,44.93
2019-02-17T13:20:21.896Z,48.60
2019-02-17T13:22:50.458Z,41.60
2019-02-17T13:25:19.206Z,46.57
2019-02-17T13:27:48.160Z,46.73
2019-02-17T13:30:19.674Z,44.43
2019-02-17T13:32:48.706Z,44.97
2019-02-17T13:35:17.436Z,46.77
2019-02-17T13:37:47.170Z,47.43
2019-02-17T13:40:17.540Z,45.83
2019-02-17T13:42:47.148Z,44.00
2019-02-17T13:45:17.023Z,46.83
2019-02-17T13:47:45.919Z,48.63
2019-02-17T13:50:16.698Z,43.87
2019-02-17T13:52:45.573Z,49.23
2019-02-17T13:55:14.183Z,45.63
2019-02-17T13:57:42.922Z,46.77
2019-02-17T14:00:16.612Z,43.93
2019-02-17T14:02:45.371Z,44.17
2019-02-17T14:05:14.192Z,46.20
2019-02-17T14:07:42.939Z,44.80
2019-02-17T14:10:12.974Z,41.57
2019-02-17T14:12:41.624Z,45.73
2019-02-17T14:15:13.302Z,45.87
2019-02-17T14:17:41.984Z,45.67
2019-02-17T14:20:11.387Z,43.73
2019-02-17T14:22:40.523Z,43.50
2019-02-17T14:25:17.051Z,46.87
2019-02-17T14:27:45.884Z,45.13
2019-02-17T14:30:16.120Z,46.43
2019-02-17T14:32:45.581Z,46.13
2019-02-17T14:35:14.519Z,45.57
2019-02-17T14:37:43.599Z,43.50
2019-02-17T14:40:16.655Z,46.20
2019-02-17T14:42:45.494Z,46.73
2019-02-17T14:45:16.280Z,45.07
2019-02-17T14:47:45.134Z,45.30
2019-02-17T14:50:14.544Z,47.67
2019-02-17T14:52:44.390Z,49.97
2019-02-17T14:55:13.558Z,45.63
2019-02-17T14:57:42.441Z,47.50
2019-02-17T15:00:15.509Z,47.83
2019-02-17T15:02:45.371Z,48.50
2019-02-17T15:05:14.835Z,48.53
2019-02-17T15:07:51.773Z,50.07
2019-02-17T15:10:24.489Z,55.40
2019-02-17T15:12:53.379Z,53.47
2019-02-17T15:15:22.323Z,54.77
2019-02-17T15:17:51.433Z,53.83
2019-02-17T15:20:22.816Z,48.13
2019-02-17T15:22:52.446Z,55.90
2019-02-17T15:25:24.564Z,52.97
2019-02-17T15:27:55.410Z,52.93
2019-02-17T15:30:23.897Z,51.90
2019-02-17T15:32:52.983Z,53.83
2019-02-17T15:35:22.457Z,61.37
2019-02-17T15:37:51.606Z,64.40
2019-02-17T15:40:20.512Z,57.50
2019-02-17T15:42:49.356Z,52.53
2019-02-17T15:45:18.264Z,58.30
2019-02-17T15:47:47.140Z,52.00
2019-02-17T15:50:16.501Z,53.77
2019-02-17T15:52:47.108Z,52.37
2019-02-17T15:55:16.114Z,59.00
2019-02-17T15:57:44.911Z,63.20
2019-02-17T16:00:17.127Z,54.10
2019-02-17T16:02:45.859Z,52.43
2019-02-17T16:05:14.667Z,52.47
2019-02-17T16:07:43.609Z,52.93
2019-02-17T16:10:14.473Z,49.37
2019-02-17T16:12:43.388Z,54.30
2019-02-17T16:15:20.476Z,54.57
2019-02-17T16:17:50.533Z,65.97
2019-02-17T16:20:19.631Z,58.03
2019-02-17T16:22:48.360Z,62.13
2019-02-17T16:25:17.201Z,57.00
2019-02-17T16:27:46.091Z,65.40
2019-02-17T16:30:19.896Z,60.53
2019-02-17T16:32:48.816Z,50.73
2019-02-17T16:35:17.705Z,59.57
2019-02-17T16:37:46.565Z,73.63
2019-02-17T16:40:19.053Z,69.70
2019-02-17T16:42:48.025Z,60.53
2019-02-17T16:45:17.078Z,63.70
2019-02-17T16:47:45.957Z,61.13
2019-02-17T16:50:26.215Z,61.17
2019-02-17T16:52:55.037Z,60.30
2019-02-17T16:55:23.806Z,68.97
2019-02-17T16:57:52.591Z,61.40
2019-02-17T17:00:22.979Z,65.17
2019-02-17T17:02:53.149Z,66.63
2019-02-17T17:05:23.160Z,69.80
2019-02-17T17:07:51.943Z,61.90
2019-02-17T17:10:20.675Z,60.57
2019-02-17T17:12:49.489Z,64.70
2019-02-17T17:15:18.237Z,63.90
2019-02-17T17:17:46.977Z,62.70
2019-02-17T17:20:18.674Z,57.40
2019-02-17T17:22:47.387Z,67.10
2019-02-17T17:25:16.090Z,57.50
2019-02-17T17:27:45.764Z,52.27
2019-02-17T17:30:16.500Z,57.37
2019-02-17T17:32:45.262Z,63.63
2019-02-17T17:35:14.802Z,62.37
2019-02-17T17:37:43.672Z,59.17
2019-02-17T17:40:16.390Z,60.27
2019-02-17T17:42:45.151Z,72.97
2019-02-17T17:45:23.302Z,66.97
2019-02-17T17:47:52.136Z,74.97
2019-02-17T17:50:20.886Z,62.20
2019-02-17T17:52:49.519Z,61.67
2019-02-17T17:55:18.230Z,56.70
2019-02-17T17:57:46.905Z,58.77
2019-02-17T18:00:20.523Z,71.53
2019-02-17T18:02:49.254Z,79.90
2019-02-17T18:05:17.958Z,65.60
2019-02-17T18:07:46.642Z,67.73
2019-02-17T18:10:16.352Z,66.37
2019-02-17T18:12:45.090Z,62.00
2019-02-17T18:15:18.653Z,67.90
2019-02-17T18:17:53.813Z,65.57
2019-02-17T18:20:17.575Z,67.50
2019-02-17T18:22:46.163Z,66.20
2019-02-17T18:25:15.549Z,69.03
2019-02-17T18:27:44.209Z,74.30
2019-02-17T18:30:16.735Z,83.57
2019-02-17T18:32:45.807Z,81.83
2019-02-17T18:35:19.711Z,89.53
2019-02-17T18:37:44.805Z,80.40
2019-02-17T18:40:15.305Z,101.23
2019-02-17T18:42:44.047Z,94.17
2019-02-17T18:45:16.866Z,82.47
2019-02-17T18:47:45.734Z,77.63
2019-02-17T18:50:16.308Z,91.67
2019-02-17T18:52:44.934Z,76.83
2019-02-17T18:55:14.157Z,75.10
2019-02-17T18:57:49.998Z,73.33
2019-02-17T19:00:27.176Z,73.73
2019-02-17T19:02:56.274Z,75.97
2019-02-17T19:05:31.928Z,73.40
2019-02-17T19:07:55.155Z,85.53
2019-02-17T19:10:23.733Z,77.30
2019-02-17T19:12:52.327Z,84.23
2019-02-17T19:15:24.596Z,82.50
2019-02-17T19:17:53.185Z,86.23
2019-02-17T19:20:33.567Z,95.23
2019-02-17T19:23:02.393Z,92.10
2019-02-17T19:25:31.246Z,84.27
2019-02-17T19:28:03.603Z,101.90
2019-02-17T19:30:31.673Z,96.27
2019-02-17T19:33:00.259Z,92.37
2019-02-17T19:35:29.055Z,108.93
2019-02-17T19:37:57.786Z,103.07
2019-02-17T19:40:26.398Z,103.27
2019-02-17T19:42:55.034Z,102.60
2019-02-17T19:45:23.700Z,99.27
2019-02-17T19:47:52.259Z,99.53
2019-02-17T19:50:20.922Z,110.17
2019-02-17T19:52:49.542Z,117.83
2019-02-17T19:55:18.179Z,101.73
2019-02-17T19:57:47.089Z,113.10
2019-02-17T20:00:22.421Z,101.33
2019-02-17T20:02:52.909Z,97.07
2019-02-17T20:05:26.201Z,100.23
2019-02-17T20:07:54.827Z,98.73
2019-02-17T20:10:23.475Z,97.27
2019-02-17T20:12:52.373Z,86.37
2019-02-17T20:15:22.223Z,93.53
2019-02-17T20:17:51.048Z,81.30
2019-02-17T20:20:19.804Z,85.33
2019-02-17T20:22:48.362Z,88.20
2019-02-17T20:25:17.025Z,90.27
2019-02-17T20:27:45.645Z,94.67
2019-02-17T20:30:15.181Z,102.80
2019-02-17T20:32:43.772Z,88.30
2019-02-17T20:35:12.554Z,86.00
2019-02-17T20:37:41.258Z,101.30
2019-02-17T20:40:14.942Z,85.73
2019-02-17T20:42:43.705Z,80.50
2019-02-17T20:45:13.508Z,82.97
2019-02-17T20:47:42.330Z,87.00
2019-02-17T20:50:19.412Z,88.30
2019-02-17T20:52:48.345Z,88.50
2019-02-17T20:55:17.008Z,87.73
2019-02-17T20:57:45.801Z,80.50
2019-02-17T21:00:17.440Z,96.33
2019-02-17T21:02:46.143Z,88.60
2019-02-17T21:05:15.192Z,90.83
2019-02-17T21:07:44.117Z,89.90
2019-02-17T21:10:16.478Z,90.90
2019-02-17T21:12:45.153Z,87.57
2019-02-17T21:15:16.594Z,102.57
2019-02-17T21:17:45.255Z,98.40
2019-02-17T21:20:15.854Z,82.20
2019-02-17T21:22:44.617Z,82.03
2019-02-17T21:25:14.443Z,92.80
2019-02-17T21:27:43.136Z,89.67
2019-02-17T21:30:17.697Z,91.47
2019-02-17T21:32:46.915Z,91.27
2019-02-17T21:35:16.945Z,99.57
2019-02-17T21:37:45.684Z,84.07
2019-02-17T21:40:14.826Z,83.93
2019-02-17T21:42:43.527Z,93.40
2019-02-17T21:45:13.159Z,94.87
2019-02-17T21:47:41.895Z,88.23
2019-02-17T21:50:12.658Z,88.70
2019-02-17T21:52:42.122Z,87.40
2019-02-17T21:55:15.132Z,80.93
2019-02-17T21:57:43.945Z,103.23
2019-02-17T22:00:16.460Z,95.10
2019-02-17T22:02:45.421Z,102.13
2019-02-17T22:05:14.221Z,103.97
2019-02-17T22:07:42.912Z,91.87
2019-02-17T22:10:16.146Z,90.07
2019-02-17T22:12:44.881Z,94.13
2019-02-17T22:15:18.257Z,95.77
2019-02-17T22:17:46.841Z,91.63
2019-02-17T22:20:15.573Z,86.83
2019-02-17T22:22:44.183Z,85.40
2019-02-17T22:25:14.634Z,87.03
2019-02-17T22:27:43.606Z,87.07
2019-02-17T22:30:13.693Z,78.30
2019-02-17T22:32:42.372Z,87.13
2019-02-17T22:35:11.099Z,95.37
2019-02-17T22:37:39.993Z,105.27
2019-02-17T22:40:11.677Z,82.57
2019-02-17T22:42:40.320Z,87.20
2019-02-17T22:45:10.744Z,86.80
2019-02-17T22:47:39.309Z,86.30
2019-02-17T22:50:14.106Z,107.47
2019-02-17T22:52:42.997Z,105.17
2019-02-17T22:55:13.130Z,97.47
2019-02-17T22:57:41.763Z,113.23
2019-02-17T23:00:48.045Z,121.47
2019-02-17T23:03:17.111Z,109.83
2019-02-17T23:05:45.854Z,96.03
2019-02-17T23:08:14.569Z,102.23
2019-02-17T23:10:43.301Z,100.73
2019-02-17T23:13:11.945Z,105.93
2019-02-17T23:15:40.609Z,93.10
2019-02-17T23:18:09.247Z,102.57
2019-02-17T23:20:37.986Z,93.43
2019-02-17T23:23:06.700Z,116.47
2019-02-17T23:25:35.373Z,98.23
2019-02-17T23:28:04.062Z,91.60
2019-02-17T23:30:32.655Z,96.07
2019-02-17T23:33:01.281Z,93.43
2019-02-17T23:35:29.933Z,92.67
2019-02-17T23:37:58.630Z,94.20
2019-02-17T23:40:27.419Z,81.27
2019-02-17T23:42:56.064Z,87.73
2019-02-17T23:45:24.661Z,95.20
2019-02-17T23:47:53.350Z,107.23
2019-02-17T23:50:21.925Z,96.43
2019-02-17T23:52:50.489Z,112.23
2019-02-17T23:55:19.225Z,114.30
2019-02-17T23:57:47.925Z,110.73
